createdAt,value
2019-05-15T00:01:28.385Z,8.93
2019-05-15T00:03:58.595Z,8.80
2019-05-15T00:06:29.190Z,8.83
2019-05-15T00:08:59.839Z,8.79
2019-05-15T00:11:30.658Z,8.79
2019-05-15T00:14:02.220Z,8.84
2019-05-15T00:16:32.534Z,8.75
2019-05-15T00:19:02.847Z,8.73
2019-05-15T00:21:34.237Z,8.84
2019-05-15T00:24:04.929Z,8.83
2019-05-15T00:26:35.299Z,8.83
2019-05-15T00:29:12.907Z,8.88
2019-05-15T00:31:39.331Z,8.91
2019-05-15T00:34:12.853Z,8.87
2019-05-15T00:36:42.183Z,8.92
2019-05-15T00:39:12.861Z,8.94
2019-05-15T00:41:53.347Z,8.92
2019-05-15T00:44:15.804Z,8.99
2019-05-15T00:46:46.137Z,9.07
2019-05-15T00:49:18.768Z,9.04
2019-05-15T00:51:48.942Z,8.98
2019-05-15T00:54:19.920Z,9.04
2019-05-15T00:56:50.812Z,8.97
2019-05-15T00:59:26.242Z,8.93
2019-05-15T01:01:53.116Z,9.01
2019-05-15T01:04:23.363Z,8.84
2019-05-15T01:06:53.584Z,8.85
2019-05-15T01:09:23.822Z,8.97
2019-05-15T01:11:54.043Z,8.98
2019-05-15T01:14:24.647Z,8.87
2019-05-15T01:16:55.034Z,8.91
2019-05-15T01:19:25.755Z,8.87
2019-05-15T01:21:56.063Z,8.86
2019-05-15T01:24:28.273Z,8.83
2019-05-15T01:26:58.653Z,8.90
2019-05-15T01:29:40.927Z,8.88
2019-05-15T01:32:01.673Z,8.97
2019-05-15T01:34:33.492Z,8.98
2019-05-15T01:37:03.800Z,8.95
2019-05-15T01:39:34.383Z,9.01
2019-05-15T01:42:05.154Z,8.98
2019-05-15T01:44:35.482Z,8.93
2019-05-15T01:47:08.321Z,8.99
2019-05-15T01:49:38.387Z,9.12
2019-05-15T01:52:09.325Z,9.07
2019-05-15T01:54:39.958Z,8.98
2019-05-15T01:57:10.844Z,8.96
2019-05-15T01:59:53.865Z,8.89
2019-05-15T02:02:13.214Z,8.90
2019-05-15T02:04:43.461Z,8.98
2019-05-15T02:07:14.085Z,8.99
2019-05-15T02:09:44.383Z,8.99
2019-05-15T02:12:15.285Z,8.92
2019-05-15T02:14:45.504Z,8.91
2019-05-15T02:17:16.104Z,8.86
2019-05-15T02:19:48.494Z,8.85
2019-05-15T02:22:19.220Z,8.79
2019-05-15T02:24:49.531Z,8.87
2019-05-15T02:27:20.104Z,8.83
2019-05-15T02:29:50.457Z,8.82
2019-05-15T02:32:21.031Z,8.74
2019-05-15T02:34:51.746Z,8.78
2019-05-15T02:37:22.366Z,8.84
2019-05-15T02:39:52.724Z,8.85
2019-05-15T02:42:22.945Z,8.85
2019-05-15T02:44:53.187Z,8.83
2019-05-15T02:47:23.435Z,8.87
2019-05-15T02:49:53.723Z,8.81
2019-05-15T02:52:23.963Z,8.84
2019-05-15T02:54:54.179Z,8.90
2019-05-15T02:57:24.924Z,8.84
2019-05-15T02:59:59.372Z,8.89
2019-05-15T03:02:29.034Z,8.89
2019-05-15T03:04:59.930Z,8.92
2019-05-15T03:07:30.334Z,8.92
2019-05-15T03:10:00.601Z,8.98
2019-05-15T03:12:31.357Z,9.09
2019-05-15T03:15:01.734Z,9.10
2019-05-15T03:17:32.612Z,9.13
2019-05-15T03:20:03.008Z,9.09
2019-05-15T03:22:33.943Z,9.07
2019-05-15T03:25:10.499Z,9.04
2019-05-15T03:27:40.506Z,9.04
2019-05-15T03:30:14.274Z,9.08
2019-05-15T03:32:53.533Z,9.09
2019-05-15T03:35:22.020Z,9.12
2019-05-15T03:37:49.738Z,9.12
2019-05-15T03:40:20.511Z,9.09
2019-05-15T03:42:50.844Z,9.15
2019-05-15T03:45:21.408Z,9.19
2019-05-15T03:47:52.026Z,9.20
2019-05-15T03:50:22.243Z,9.20
2019-05-15T03:52:52.804Z,9.15
2019-05-15T03:55:23.483Z,9.19
2019-05-15T03:57:54.375Z,9.17
2019-05-15T04:00:24.670Z,9.22
2019-05-15T04:02:55.274Z,9.19
2019-05-15T04:05:25.587Z,9.23
2019-05-15T04:07:59.816Z,9.22
2019-05-15T04:10:29.755Z,9.25
2019-05-15T04:13:00.442Z,9.18
2019-05-15T04:15:30.733Z,9.26
2019-05-15T04:18:01.116Z,9.32
2019-05-15T04:20:31.649Z,9.45
2019-05-15T04:23:02.305Z,9.44
2019-05-15T04:25:34.342Z,9.41
2019-05-15T04:28:09.390Z,9.41
2019-05-15T04:30:39.280Z,9.40
2019-05-15T04:33:10.201Z,9.39
2019-05-15T04:35:40.862Z,9.48
2019-05-15T04:38:11.319Z,9.49
2019-05-15T04:40:41.606Z,9.44
2019-05-15T04:43:12.188Z,9.47
2019-05-15T04:45:43.237Z,9.46
2019-05-15T04:48:13.496Z,9.51
2019-05-15T04:50:44.072Z,9.47
2019-05-15T04:53:14.353Z,9.53
2019-05-15T04:55:45.014Z,9.53
2019-05-15T04:58:20.818Z,9.54
2019-05-15T05:00:50.683Z,9.52
2019-05-15T05:03:22.000Z,9.56
2019-05-15T05:05:52.983Z,9.64
2019-05-15T05:08:24.720Z,9.65
2019-05-15T05:10:58.851Z,9.70
2019-05-15T05:13:28.681Z,9.64
2019-05-15T05:15:59.947Z,9.71
2019-05-15T05:18:30.593Z,9.73
2019-05-15T05:21:00.899Z,9.63
2019-05-15T05:23:31.990Z,9.64
2019-05-15T05:26:02.389Z,9.71
2019-05-15T05:28:32.667Z,9.67
2019-05-15T05:31:02.972Z,9.77
2019-05-15T05:33:33.217Z,9.75
2019-05-15T05:36:04.011Z,9.73
2019-05-15T05:38:34.647Z,9.71
2019-05-15T05:41:07.943Z,9.65
2019-05-15T05:43:38.451Z,9.79
2019-05-15T05:46:09.465Z,9.80
2019-05-15T05:48:39.773Z,9.86
2019-05-15T05:51:10.088Z,9.80
2019-05-15T05:53:40.496Z,9.77
2019-05-15T05:56:10.726Z,9.84
2019-05-15T05:58:41.140Z,9.84
2019-05-15T06:01:11.384Z,9.85
2019-05-15T06:03:41.669Z,9.85
2019-05-15T06:06:11.913Z,9.81
2019-05-15T06:08:42.167Z,9.89
2019-05-15T06:11:12.556Z,9.95
2019-05-15T06:13:42.782Z,9.96
2019-05-15T06:16:13.029Z,10.00
2019-05-15T06:18:43.284Z,10.12
2019-05-15T06:21:13.546Z,10.23
2019-05-15T06:23:46.084Z,10.21
2019-05-15T06:26:15.954Z,10.24
2019-05-15T06:28:48.970Z,10.25
2019-05-15T06:31:19.922Z,10.41
2019-05-15T06:33:50.386Z,10.42
2019-05-15T06:36:20.969Z,10.46
2019-05-15T06:38:51.911Z,10.44
2019-05-15T06:41:22.129Z,10.42
2019-05-15T06:43:52.364Z,10.38
2019-05-15T06:46:22.616Z,10.43
2019-05-15T06:48:53.242Z,10.54
2019-05-15T06:51:24.124Z,10.53
2019-05-15T06:53:54.896Z,10.63
2019-05-15T06:56:28.160Z,10.72
2019-05-15T06:58:58.342Z,10.83
2019-05-15T07:01:29.450Z,10.90
2019-05-15T07:04:02.764Z,10.92
2019-05-15T07:06:33.654Z,10.94
2019-05-15T07:09:09.182Z,10.98
2019-05-15T07:11:38.825Z,10.99
2019-05-15T07:14:10.394Z,11.05
2019-05-15T07:16:43.412Z,11.13
2019-05-15T07:19:14.067Z,11.13
2019-05-15T07:21:48.600Z,11.09
2019-05-15T07:24:18.519Z,11.17
2019-05-15T07:26:50.490Z,11.11
2019-05-15T07:29:21.137Z,11.12
2019-05-15T07:31:51.480Z,11.04
2019-05-15T07:34:22.682Z,11.17
2019-05-15T07:36:54.839Z,11.13
2019-05-15T07:39:25.532Z,11.17
2019-05-15T07:41:57.820Z,11.14
2019-05-15T07:44:28.580Z,11.02
2019-05-15T07:46:59.283Z,11.09
2019-05-15T07:49:29.679Z,11.28
2019-05-15T07:51:59.949Z,11.46
2019-05-15T07:54:31.014Z,11.65
2019-05-15T07:57:01.747Z,11.73
2019-05-15T07:59:32.472Z,11.86
2019-05-15T08:02:03.066Z,11.90
2019-05-15T08:04:33.701Z,11.94
2019-05-15T08:07:04.435Z,12.09
2019-05-15T08:09:45.517Z,12.11
2019-05-15T08:12:19.028Z,12.15
2019-05-15T08:14:50.885Z,12.15
2019-05-15T08:17:22.013Z,12.21
2019-05-15T08:19:52.926Z,12.30
2019-05-15T08:22:24.775Z,12.26
2019-05-15T08:24:55.421Z,12.19
2019-05-15T08:27:29.688Z,12.08
2019-05-15T08:29:58.471Z,12.01
2019-05-15T08:32:29.197Z,11.87
2019-05-15T08:35:00.748Z,11.79
2019-05-15T08:37:32.993Z,11.76
2019-05-15T08:40:03.730Z,11.68
2019-05-15T08:42:34.559Z,11.56
2019-05-15T08:45:09.238Z,11.53
2019-05-15T08:47:39.692Z,11.61
2019-05-15T08:50:22.554Z,11.61
2019-05-15T08:52:53.798Z,11.60
2019-05-15T08:55:24.462Z,11.66
2019-05-15T08:57:56.076Z,11.81
2019-05-15T09:00:29.424Z,11.87
2019-05-15T09:03:01.946Z,11.91
2019-05-15T09:05:38.813Z,12.21
2019-05-15T09:08:09.469Z,12.31
2019-05-15T09:10:39.715Z,12.42
2019-05-15T09:13:09.958Z,12.52
2019-05-15T09:15:41.140Z,12.61
2019-05-15T09:18:15.997Z,12.58
2019-05-15T09:20:43.729Z,12.61
2019-05-15T09:23:14.376Z,12.58
2019-05-15T09:25:44.673Z,12.63
2019-05-15T09:28:18.881Z,12.72
2019-05-15T09:30:48.424Z,12.79
2019-05-15T09:33:19.947Z,12.73
2019-05-15T09:35:50.784Z,12.71
2019-05-15T09:38:21.458Z,12.64
2019-05-15T09:40:52.180Z,12.62
2019-05-15T09:43:24.042Z,12.50
2019-05-15T09:45:55.404Z,12.48
2019-05-15T09:48:28.437Z,12.49
2019-05-15T09:50:58.856Z,12.66
2019-05-15T09:53:29.821Z,12.74
2019-05-15T09:56:00.624Z,12.76
2019-05-15T09:58:31.101Z,12.79
2019-05-15T10:01:01.761Z,12.98
2019-05-15T10:03:33.362Z,13.10
2019-05-15T10:06:03.674Z,13.16
2019-05-15T10:08:33.938Z,13.14
2019-05-15T10:11:04.242Z,12.91
2019-05-15T10:13:38.314Z,12.88
2019-05-15T10:16:08.721Z,12.68
2019-05-15T10:18:40.181Z,12.81
2019-05-15T10:21:10.529Z,12.82
2019-05-15T10:23:40.835Z,12.72
2019-05-15T10:26:13.812Z,12.55
2019-05-15T10:28:43.373Z,12.50
2019-05-15T10:31:19.522Z,12.35
2019-05-15T10:33:49.937Z,12.19
2019-05-15T10:36:20.646Z,12.12
2019-05-15T10:38:51.429Z,11.98
2019-05-15T10:41:21.791Z,11.88
2019-05-15T10:43:56.328Z,11.84
2019-05-15T10:46:24.461Z,11.76
2019-05-15T10:48:55.015Z,11.65
2019-05-15T10:51:28.427Z,11.65
2019-05-15T10:53:57.761Z,11.60
2019-05-15T10:56:29.168Z,11.68
2019-05-15T10:58:59.827Z,11.62
2019-05-15T11:01:31.687Z,11.63
2019-05-15T11:04:02.040Z,11.65
2019-05-15T11:06:32.369Z,11.70
2019-05-15T11:09:02.605Z,11.77
2019-05-15T11:11:35.686Z,11.84
2019-05-15T11:14:08.863Z,11.85
2019-05-15T11:16:39.073Z,11.94
2019-05-15T11:19:09.738Z,11.94
2019-05-15T11:21:43.398Z,11.98
2019-05-15T11:24:12.693Z,12.04
2019-05-15T11:26:43.030Z,12.07
2019-05-15T11:29:13.680Z,12.09
2019-05-15T11:31:44.012Z,12.04
2019-05-15T11:34:14.594Z,12.03
2019-05-15T11:36:48.438Z,12.02
2019-05-15T11:39:18.493Z,12.13
2019-05-15T11:41:49.422Z,12.26
2019-05-15T11:44:20.324Z,12.18
2019-05-15T11:46:54.559Z,12.21
2019-05-15T11:49:25.153Z,12.23
2019-05-15T11:52:00.367Z,12.14
2019-05-15T11:54:30.538Z,12.16
2019-05-15T11:57:01.174Z,12.15
2019-05-15T11:59:31.865Z,12.07
2019-05-15T12:02:04.133Z,12.07
2019-05-15T12:04:34.933Z,12.07
2019-05-15T12:07:05.875Z,12.13
2019-05-15T12:09:38.601Z,12.19
2019-05-15T12:12:08.888Z,12.31
2019-05-15T12:14:41.159Z,12.31
2019-05-15T12:17:15.378Z,12.48
2019-05-15T12:19:43.759Z,12.50
2019-05-15T12:22:14.461Z,12.51
2019-05-15T12:24:49.537Z,12.52
2019-05-15T12:27:18.477Z,12.43
2019-05-15T12:29:49.382Z,12.25
2019-05-15T12:34:52.047Z,12.17
2019-05-15T12:37:22.347Z,12.07
2019-05-15T13:00:14.322Z,12.38
2019-05-15T13:02:45.111Z,12.51
2019-05-15T13:05:15.923Z,12.41
2019-05-15T13:07:48.372Z,12.27
2019-05-15T13:10:19.340Z,12.19
2019-05-15T13:13:00.892Z,12.11
2019-05-15T13:15:21.697Z,12.25
2019-05-15T13:17:53.623Z,12.15
2019-05-15T13:20:25.190Z,12.22
2019-05-15T13:22:55.935Z,12.20
2019-05-15T13:25:28.241Z,12.09
2019-05-15T13:28:01.959Z,12.06
2019-05-15T13:30:34.239Z,12.12
2019-05-15T13:33:09.421Z,11.97
2019-05-15T13:35:39.303Z,11.90
2019-05-15T13:38:10.317Z,11.91
2019-05-15T13:40:42.602Z,11.81
2019-05-15T13:43:13.266Z,11.81
2019-05-15T13:45:43.558Z,11.75
2019-05-15T13:48:16.398Z,11.76
2019-05-15T13:50:48.286Z,11.75
2019-05-15T13:53:21.369Z,11.82
2019-05-15T13:55:52.030Z,11.82
2019-05-15T13:58:22.382Z,11.75
2019-05-15T14:00:53.490Z,11.84
2019-05-15T14:03:23.697Z,11.77
2019-05-15T14:05:54.009Z,11.74
2019-05-15T14:08:24.220Z,11.85
2019-05-15T14:10:54.816Z,11.90
2019-05-15T14:13:25.056Z,11.90
2019-05-15T14:15:55.385Z,11.88
2019-05-15T14:18:28.396Z,11.85
2019-05-15T14:20:58.663Z,11.87
2019-05-15T14:23:29.766Z,11.84
2019-05-15T14:26:07.393Z,11.90
2019-05-15T14:28:35.443Z,11.80
2019-05-15T14:31:09.514Z,11.85
2019-05-15T14:33:38.541Z,11.80
2019-05-15T14:36:09.028Z,11.69
2019-05-15T14:38:39.332Z,11.71
2019-05-15T14:41:12.483Z,11.60
2019-05-15T14:43:41.970Z,11.65
2019-05-15T14:46:12.491Z,11.61
2019-05-15T14:48:43.087Z,11.55
2019-05-15T14:51:13.758Z,11.65
2019-05-15T14:53:44.469Z,11.56
2019-05-15T14:56:14.921Z,11.69
2019-05-15T14:58:48.050Z,11.71
2019-05-15T15:01:18.943Z,11.77
2019-05-15T15:03:49.657Z,11.73
2019-05-15T15:06:20.307Z,11.70
2019-05-15T15:08:51.010Z,11.63
2019-05-15T15:11:21.765Z,11.64
2019-05-15T15:13:52.059Z,11.64
2019-05-15T15:16:22.390Z,11.61
2019-05-15T15:18:52.967Z,11.70
2019-05-15T15:21:25.175Z,11.65
2019-05-15T15:23:58.970Z,11.72
2019-05-15T15:26:29.297Z,11.78
2019-05-15T15:28:59.867Z,11.90
2019-05-15T15:31:30.336Z,11.79
2019-05-15T15:34:00.886Z,11.83
2019-05-15T15:36:33.245Z,11.75
2019-05-15T15:39:08.113Z,11.84
2019-05-15T15:41:38.987Z,11.76
2019-05-15T15:44:09.996Z,11.86
2019-05-15T15:46:40.423Z,11.86
2019-05-15T15:49:11.388Z,11.88
2019-05-15T15:51:41.818Z,11.90
2019-05-15T15:54:12.526Z,11.88
2019-05-15T15:56:42.830Z,11.87
2019-05-15T15:59:13.477Z,11.89
2019-05-15T16:01:44.399Z,11.99
2019-05-15T16:04:18.634Z,12.04
2019-05-15T16:06:49.468Z,12.01
2019-05-15T16:09:19.686Z,12.01
2019-05-15T16:11:49.995Z,11.96
2019-05-15T16:14:20.587Z,11.98
2019-05-15T16:16:51.462Z,11.99
2019-05-15T16:19:21.950Z,12.08
2019-05-15T16:21:52.146Z,12.05
2019-05-15T16:24:22.794Z,12.02
2019-05-15T16:26:55.046Z,12.04
2019-05-15T16:29:28.101Z,12.05
2019-05-15T16:31:58.317Z,12.12
2019-05-15T16:34:28.615Z,12.11
2019-05-15T16:36:59.209Z,12.18
2019-05-15T16:39:29.701Z,12.16
2019-05-15T16:41:59.977Z,12.17
2019-05-15T16:44:30.788Z,12.29
2019-05-15T16:47:01.137Z,12.32
2019-05-15T16:49:32.916Z,12.36
2019-05-15T16:52:03.212Z,12.39
2019-05-15T16:54:33.469Z,12.48
2019-05-15T16:57:05.114Z,12.45
2019-05-15T16:59:36.204Z,12.56
2019-05-15T17:02:08.909Z,12.54
2019-05-15T17:04:40.028Z,12.60
2019-05-15T17:07:11.505Z,12.66
2019-05-15T17:09:41.876Z,12.70
2019-05-15T17:12:12.808Z,12.76
2019-05-15T17:14:45.197Z,12.72
2019-05-15T17:17:15.512Z,12.70
2019-05-15T17:19:48.359Z,12.72
2019-05-15T17:22:18.661Z,12.73
2019-05-15T17:24:49.308Z,12.78
2019-05-15T17:27:19.891Z,12.73
2019-05-15T17:29:50.179Z,12.96
2019-05-15T17:32:20.506Z,12.81
2019-05-15T17:34:53.444Z,12.93
2019-05-15T17:37:24.651Z,12.94
2019-05-15T17:39:58.797Z,12.90
2019-05-15T17:42:30.350Z,12.94
2019-05-15T17:45:00.845Z,12.96
2019-05-15T17:47:31.709Z,12.89
2019-05-15T17:50:02.174Z,12.93
2019-05-15T17:52:33.961Z,13.01
2019-05-15T17:55:06.471Z,13.06
2019-05-15T17:57:38.688Z,13.08
2019-05-15T18:00:12.714Z,13.13
2019-05-15T18:02:43.905Z,13.12
2019-05-15T18:05:14.466Z,13.07
2019-05-15T18:07:48.649Z,13.10
2019-05-15T18:10:19.414Z,13.04
2019-05-15T18:12:50.115Z,12.99
2019-05-15T18:15:20.794Z,12.98
2019-05-15T18:17:51.644Z,13.00
2019-05-15T18:20:29.838Z,12.97
2019-05-15T18:23:01.010Z,13.03
2019-05-15T18:25:32.436Z,13.09
2019-05-15T18:28:08.537Z,13.11
2019-05-15T18:30:41.992Z,13.12
2019-05-15T18:33:12.345Z,13.18
2019-05-15T18:35:42.699Z,13.18
2019-05-15T18:38:15.542Z,13.15
2019-05-15T18:40:48.788Z,13.21
2019-05-15T18:43:20.188Z,13.21
2019-05-15T18:45:51.068Z,13.19
2019-05-15T18:48:24.573Z,13.16
2019-05-15T18:50:55.087Z,13.14
2019-05-15T18:53:25.328Z,13.14
2019-05-15T18:55:58.339Z,13.09
2019-05-15T18:58:29.265Z,13.05
2019-05-15T19:00:59.662Z,13.07
2019-05-15T19:03:30.042Z,13.06
2019-05-15T19:06:01.868Z,13.05
2019-05-15T19:08:32.567Z,13.06
2019-05-15T19:11:05.359Z,12.99
2019-05-15T19:13:35.914Z,13.09
2019-05-15T19:16:07.168Z,13.05
2019-05-15T19:18:38.537Z,13.07
2019-05-15T19:21:13.680Z,13.07
2019-05-15T19:23:44.263Z,13.12
2019-05-15T19:26:18.319Z,13.06
2019-05-15T19:28:48.833Z,13.04
2019-05-15T19:31:26.537Z,13.01
2019-05-15T19:33:55.852Z,13.00
2019-05-15T19:36:27.701Z,12.97
2019-05-15T19:38:58.247Z,13.10
2019-05-15T19:41:30.114Z,13.03
2019-05-15T19:44:00.461Z,13.07
2019-05-15T19:46:30.922Z,13.03
2019-05-15T19:49:01.721Z,12.98
2019-05-15T19:51:32.895Z,13.07
2019-05-15T19:54:03.700Z,13.14
2019-05-15T19:56:34.484Z,13.11
2019-05-15T19:59:04.845Z,13.14
2019-05-15T20:01:35.705Z,13.10
2019-05-15T20:04:08.029Z,13.08
2019-05-15T20:06:38.821Z,13.12
2019-05-15T20:09:11.293Z,13.15
2019-05-15T20:11:42.406Z,13.12
2019-05-15T20:14:12.713Z,13.09
2019-05-15T20:16:43.322Z,13.19
2019-05-15T20:19:13.847Z,13.21
2019-05-15T20:21:44.320Z,13.18
2019-05-15T20:24:14.920Z,13.12
2019-05-15T20:26:48.409Z,13.15
2019-05-15T20:29:18.263Z,13.14
2019-05-15T20:31:48.788Z,13.09
2019-05-15T20:34:19.404Z,13.14
2019-05-15T20:36:50.074Z,13.14
2019-05-15T20:39:20.759Z,13.20
2019-05-15T20:41:51.121Z,13.27
2019-05-15T20:44:21.609Z,13.23
2019-05-15T20:46:51.917Z,13.24
2019-05-15T20:49:22.496Z,13.28
2019-05-15T20:51:53.331Z,13.25
2019-05-15T20:54:23.710Z,13.29
2019-05-15T20:56:55.393Z,13.31
2019-05-15T20:59:25.602Z,13.30
2019-05-15T21:01:55.882Z,13.29
2019-05-15T21:04:28.084Z,13.26
2019-05-15T21:06:58.945Z,13.31
2019-05-15T21:09:30.731Z,13.29
2019-05-15T21:12:01.422Z,13.24
2019-05-15T21:14:32.076Z,13.15
2019-05-15T21:17:02.815Z,13.16
2019-05-15T21:19:33.720Z,13.18
2019-05-15T21:22:08.356Z,13.14
2019-05-15T21:24:39.864Z,13.19
2019-05-15T21:27:10.542Z,13.13
2019-05-15T21:29:41.254Z,13.08
2019-05-15T21:32:12.211Z,13.17
2019-05-15T21:34:44.466Z,13.14
2019-05-15T21:37:21.048Z,13.18
2019-05-15T21:39:51.947Z,13.12
2019-05-15T21:42:22.610Z,13.08
2019-05-15T21:44:52.962Z,13.19
2019-05-15T21:47:23.219Z,13.15
2019-05-15T21:49:53.569Z,13.18
2019-05-15T21:52:24.205Z,13.19
2019-05-15T21:54:59.421Z,13.17
2019-05-15T21:57:35.984Z,13.21
2019-05-15T22:00:01.554Z,13.23
2019-05-15T22:03:48.184Z,13.25
2019-05-15T22:06:36.365Z,13.21
2019-05-15T22:09:09.373Z,13.27
2019-05-15T22:11:39.731Z,13.29
2019-05-15T22:14:11.132Z,13.28
2019-05-15T22:16:44.774Z,13.38
2019-05-15T22:19:18.085Z,13.36
2019-05-15T22:21:49.301Z,13.40
2019-05-15T22:24:23.589Z,13.39
2019-05-15T22:26:54.108Z,13.43
2019-05-15T22:29:29.044Z,13.52
2019-05-15T22:31:59.394Z,13.48
2019-05-15T22:34:29.720Z,13.46
2019-05-15T22:36:59.972Z,13.49
2019-05-15T22:39:30.196Z,13.50
2019-05-15T22:42:00.777Z,13.50
2019-05-15T22:44:31.014Z,13.48
2019-05-15T22:47:01.255Z,13.48
2019-05-15T22:49:31.506Z,13.53
2019-05-15T22:52:01.844Z,13.47
2019-05-15T22:54:33.493Z,13.50
2019-05-15T22:57:04.073Z,13.49
2019-05-15T22:59:34.336Z,13.50
2019-05-15T23:02:05.116Z,13.45
2019-05-15T23:04:35.439Z,13.40
2019-05-15T23:07:08.023Z,13.47
2019-05-15T23:09:38.480Z,13.55
2019-05-15T23:12:11.369Z,13.53
2019-05-15T23:14:40.897Z,13.54
2019-05-15T23:17:11.495Z,13.59
2019-05-15T23:19:41.818Z,13.58
2019-05-15T23:22:12.041Z,13.60
2019-05-15T23:24:42.277Z,13.55
2019-05-15T23:27:14.109Z,13.54
2019-05-15T23:29:48.951Z,13.55
2019-05-15T23:32:21.570Z,13.63
2019-05-15T23:34:53.347Z,13.56
2019-05-15T23:37:24.152Z,13.60
2019-05-15T23:39:54.468Z,13.61
2019-05-15T23:42:25.092Z,13.56
2019-05-15T23:44:55.456Z,13.57
2019-05-15T23:47:28.483Z,13.54
2019-05-15T23:49:58.091Z,13.62
2019-05-15T23:52:28.687Z,13.62
2019-05-15T23:54:59.151Z,13.64
2019-05-15T23:57:29.392Z,13.71
2019-05-15T23:59:59.973Z,13.74
